Terminal Aerodrome Forecast
Issued by NWS Wilmington, OH

Current Version | Previous Version | Graphics & Text | Print | Product List | Glossary On
Versions: 1 2 3 4 5 6 7 8 9 10 11 12 13 14 15 16 17 18 19 20
000
FTUS41 KILN 131400 AAA
TAFILN
TAF AMD
KILN 131457Z 1315/1412 21012G19KT P6SM VCSH SCT025 BKN180
     FM131800 23014G22KT P6SM VCTS BKN040CB
     FM132000 25014G24KT 5SM -SHRA VCTS OVC035CB
     FM140000 25012KT P6SM VCSH BKN035
     FM140700 27010KT P6SM BKN040=

USA.gov is the U.S. government's official web portal to all federal, state and local government web resources and services.